sensor_id;sensor_type;location;lat;lon;timestamp;P1;durP1;ratioP1;P2;durP2;ratioP2
41532;SDS011;27262;-35.248;149.138;2022-09-19T00:00:07;1.15;;;0.43;;
41532;SDS011;27262;-35.248;149.138;2022-09-19T00:02:37;0.40;;;0.20;;
41532;SDS011;27262;-35.248;149.138;2022-09-19T00:05:08;2.08;;;0.10;;
41532;SDS011;27262;-35.248;149.138;2022-09-19T00:07:38;1.85;;;0.22;;
41532;SDS011;27262;-35.248;149.138;2022-09-19T00:10:08;2.38;;;0.30;;
41532;SDS011;27262;-35.248;149.138;2022-09-19T00:12:39;0.32;;;0.20;;
41532;SDS011;27262;-35.248;149.138;2022-09-19T00:15:09;7.70;;;0.50;;
41532;SDS011;27262;-35.248;149.138;2022-09-19T00:17:39;6.05;;;0.40;;
41532;SDS011;27262;-35.248;149.138;2022-09-19T00:20:09;2.78;;;0.40;;
41532;SDS011;27262;-35.248;149.138;2022-09-19T00:22:40;1.10;;;0.30;;
41532;SDS011;27262;-35.248;149.138;2022-09-19T00:25:29;4.28;;;0.30;;
41532;SDS011;27262;-35.248;149.138;2022-09-19T00:28:00;0.38;;;0.22;;
41532;SDS011;27262;-35.248;149.138;2022-09-19T00:30:30;0.77;;;0.20;;
41532;SDS011;27262;-35.248;149.138;2022-09-19T00:33:05;2.05;;;0.30;;
41532;SDS011;27262;-35.248;149.138;2022-09-19T00:35:35;2.92;;;0.30;;
41532;SDS011;27262;-35.248;149.138;2022-09-19T00:38:06;1.58;;;0.38;;
41532;SDS011;27262;-35.248;149.138;2022-09-19T00:40:36;1.08;;;0.20;;
41532;SDS011;27262;-35.248;149.138;2022-09-19T00:43:09;2.20;;;0.40;;
41532;SDS011;27262;-35.248;149.138;2022-09-19T00:45:42;1.42;;;0.45;;
41532;SDS011;27262;-35.248;149.138;2022-09-19T00:48:13;1.00;;;0.25;;
41532;SDS011;27262;-35.248;149.138;2022-09-19T00:50:44;1.77;;;0.30;;
41532;SDS011;27262;-35.248;149.138;2022-09-19T00:53:20;3.30;;;0.35;;
41532;SDS011;27262;-35.248;149.138;2022-09-19T00:55:54;2.42;;;0.20;;
41532;SDS011;27262;-35.248;149.138;2022-09-19T01:00:59;0.73;;;0.30;;
41532;SDS011;27262;-35.248;149.138;2022-09-19T01:03:30;1.25;;;0.17;;
41532;SDS011;27262;-35.248;149.138;2022-09-19T01:12:33;1.55;;;0.30;;
41532;SDS011;27262;-35.248;149.138;2022-09-19T01:17:52;1.30;;;0.30;;
41532;SDS011;27262;-35.248;149.138;2022-09-19T01:26:04;2.67;;;0.20;;
41532;SDS011;27262;-35.248;149.138;2022-09-19T01:28:54;1.80;;;0.30;;
41532;SDS011;27262;-35.248;149.138;2022-09-19T01:31:26;1.95;;;0.30;;
41532;SDS011;27262;-35.248;149.138;2022-09-19T01:34:04;0.57;;;0.15;;
41532;SDS011;27262;-35.248;149.138;2022-09-19T01:36:58;0.25;;;0.20;;
41532;SDS011;27262;-35.248;149.138;2022-09-19T01:39:42;2.38;;;0.30;;
41532;SDS011;27262;-35.248;149.138;2022-09-19T01:42:19;4.85;;;0.40;;
41532;SDS011;27262;-35.248;149.138;2022-09-19T01:44:49;3.15;;;0.35;;
41532;SDS011;27262;-35.248;149.138;2022-09-19T01:47:33;5.30;;;0.40;;
41532;SDS011;27262;-35.248;149.138;2022-09-19T01:50:09;3.33;;;0.57;;
41532;SDS011;27262;-35.248;149.138;2022-09-19T01:55:51;2.67;;;0.30;;
41532;SDS011;27262;-35.248;149.138;2022-09-19T01:58:38;0.47;;;0.30;;
41532;SDS011;27262;-35.248;149.138;2022-09-19T02:01:27;1.05;;;0.28;;
41532;SDS011;27262;-35.248;149.138;2022-09-19T02:04:15;0.93;;;0.20;;
41532;SDS011;27262;-35.248;149.138;2022-09-19T02:09:33;0.80;;;0.10;;
41532;SDS011;27262;-35.248;149.138;2022-09-19T02:12:34;1.80;;;0.20;;
41532;SDS011;27262;-35.248;149.138;2022-09-19T02:15:08;1.52;;;0.20;;
41532;SDS011;27262;-35.248;149.138;2022-09-19T02:17:46;0.22;;;0.20;;
41532;SDS011;27262;-35.248;149.138;2022-09-19T02:20:26;0.95;;;0.40;;
41532;SDS011;27262;-35.248;149.138;2022-09-19T02:23:06;1.10;;;0.15;;
41532;SDS011;27262;-35.248;149.138;2022-09-19T02:25:43;0.38;;;0.20;;
41532;SDS011;27262;-35.248;149.138;2022-09-19T02:28:18;0.88;;;0.20;;
41532;SDS011;27262;-35.248;149.138;2022-09-19T02:30:51;0.85;;;0.25;;
41532;SDS011;27262;-35.248;149.138;2022-09-19T02:33:22;3.30;;;0.40;;
41532;SDS011;27262;-35.248;149.138;2022-09-19T02:36:12;2.10;;;0.28;;
41532;SDS011;27262;-35.248;149.138;2022-09-19T02:39:02;0.20;;;0.20;;
41532;SDS011;27262;-35.248;149.138;2022-09-19T02:47:58;1.60;;;0.20;;
41532;SDS011;27262;-35.248;149.138;2022-09-19T02:53:43;0.25;;;0.20;;
41532;SDS011;27262;-35.248;149.138;2022-09-19T02:56:22;1.17;;;0.30;;
41532;SDS011;27262;-35.248;149.138;2022-09-19T02:59:02;1.65;;;0.20;;
41532;SDS011;27262;-35.248;149.138;2022-09-19T03:01:41;0.40;;;0.20;;
41532;SDS011;27262;-35.248;149.138;2022-09-19T03:04:15;0.10;;;0.10;;
41532;SDS011;27262;-35.248;149.138;2022-09-19T03:09:46;1.75;;;0.30;;
41532;SDS011;27262;-35.248;149.138;2022-09-19T03:13:05;0.47;;;0.20;;
41532;SDS011;27262;-35.248;149.138;2022-09-19T03:15:21;0.70;;;0.30;;
41532;SDS011;27262;-35.248;149.138;2022-09-19T03:18:09;2.65;;;0.25;;
41532;SDS011;27262;-35.248;149.138;2022-09-19T03:20:48;0.10;;;0.10;;
41532;SDS011;27262;-35.248;149.138;2022-09-19T03:23:41;0.30;;;0.20;;
41532;SDS011;27262;-35.248;149.138;2022-09-19T03:26:19;1.92;;;0.20;;
41532;SDS011;27262;-35.248;149.138;2022-09-19T03:28:54;1.00;;;0.22;;
41532;SDS011;27262;-35.248;149.138;2022-09-19T03:31:24;5.03;;;0.28;;
41532;SDS011;27262;-35.248;149.138;2022-09-19T03:33:55;1.95;;;0.30;;
41532;SDS011;27262;-35.248;149.138;2022-09-19T03:36:25;2.17;;;0.30;;
41532;SDS011;27262;-35.248;149.138;2022-09-19T03:39:02;0.65;;;0.17;;
41532;SDS011;27262;-35.248;149.138;2022-09-19T03:41:32;2.05;;;0.20;;
41532;SDS011;27262;-35.248;149.138;2022-09-19T03:44:03;0.70;;;0.25;;
41532;SDS011;27262;-35.248;149.138;2022-09-19T03:46:34;0.98;;;0.20;;
41532;SDS011;27262;-35.248;149.138;2022-09-19T03:49:04;0.32;;;0.10;;
41532;SDS011;27262;-35.248;149.138;2022-09-19T03:51:34;0.55;;;0.20;;
41532;SDS011;27262;-35.248;149.138;2022-09-19T03:54:05;1.45;;;0.10;;
41532;SDS011;27262;-35.248;149.138;2022-09-19T03:56:36;0.98;;;0.30;;
41532;SDS011;27262;-35.248;149.138;2022-09-19T03:59:06;0.30;;;0.20;;
41532;SDS011;27262;-35.248;149.138;2022-09-19T04:01:36;0.30;;;0.20;;
41532;SDS011;27262;-35.248;149.138;2022-09-19T04:04:07;0.13;;;0.10;;
41532;SDS011;27262;-35.248;149.138;2022-09-19T04:06:39;0.85;;;0.15;;
41532;SDS011;27262;-35.248;149.138;2022-09-19T04:09:09;0.10;;;0.10;;
41532;SDS011;27262;-35.248;149.138;2022-09-19T04:11:39;0.40;;;0.17;;
41532;SDS011;27262;-35.248;149.138;2022-09-19T04:14:10;0.10;;;0.10;;
41532;SDS011;27262;-35.248;149.138;2022-09-19T04:16:41;0.82;;;0.20;;
41532;SDS011;27262;-35.248;149.138;2022-09-19T04:19:11;0.17;;;0.10;;
41532;SDS011;27262;-35.248;149.138;2022-09-19T04:21:41;0.17;;;0.13;;
41532;SDS011;27262;-35.248;149.138;2022-09-19T04:24:12;3.67;;;0.40;;
41532;SDS011;27262;-35.248;149.138;2022-09-19T04:26:43;0.10;;;0.10;;
41532;SDS011;27262;-35.248;149.138;2022-09-19T04:29:13;0.10;;;0.10;;
41532;SDS011;27262;-35.248;149.138;2022-09-19T04:31:44;0.32;;;0.20;;
41532;SDS011;27262;-35.248;149.138;2022-09-19T04:34:15;2.47;;;0.30;;
41532;SDS011;27262;-35.248;149.138;2022-09-19T04:36:46;3.03;;;0.47;;
41532;SDS011;27262;-35.248;149.138;2022-09-19T04:39:19;1.05;;;0.40;;
41532;SDS011;27262;-35.248;149.138;2022-09-19T04:41:49;0.75;;;0.30;;
41532;SDS011;27262;-35.248;149.138;2022-09-19T04:44:21;2.00;;;0.47;;
41532;SDS011;27262;-35.248;149.138;2022-09-19T04:46:57;1.15;;;0.52;;
41532;SDS011;27262;-35.248;149.138;2022-09-19T04:49:27;12.90;;;0.40;;
41532;SDS011;27262;-35.248;149.138;2022-09-19T04:52:08;3.45;;;0.50;;
41532;SDS011;27262;-35.248;149.138;2022-09-19T04:54:40;0.45;;;0.38;;
41532;SDS011;27262;-35.248;149.138;2022-09-19T04:57:11;7.90;;;0.90;;
41532;SDS011;27262;-35.248;149.138;2022-09-19T04:59:42;1.70;;;0.40;;
41532;SDS011;27262;-35.248;149.138;2022-09-19T05:02:12;0.40;;;0.30;;
41532;SDS011;27262;-35.248;149.138;2022-09-19T05:04:43;1.17;;;0.30;;
41532;SDS011;27262;-35.248;149.138;2022-09-19T05:07:13;0.90;;;0.30;;
41532;SDS011;27262;-35.248;149.138;2022-09-19T05:09:44;0.65;;;0.28;;
41532;SDS011;27262;-35.248;149.138;2022-09-19T05:12:14;2.47;;;0.35;;
41532;SDS011;27262;-35.248;149.138;2022-09-19T05:14:44;6.85;;;0.77;;
41532;SDS011;27262;-35.248;149.138;2022-09-19T05:17:15;1.20;;;0.20;;
41532;SDS011;27262;-35.248;149.138;2022-09-19T05:19:45;1.88;;;0.70;;
41532;SDS011;27262;-35.248;149.138;2022-09-19T05:22:15;2.30;;;0.52;;
41532;SDS011;27262;-35.248;149.138;2022-09-19T05:24:45;3.80;;;0.47;;
41532;SDS011;27262;-35.248;149.138;2022-09-19T05:27:16;2.22;;;0.30;;
41532;SDS011;27262;-35.248;149.138;2022-09-19T05:29:50;0.68;;;0.40;;
41532;SDS011;27262;-35.248;149.138;2022-09-19T05:32:21;0.28;;;0.20;;
41532;SDS011;27262;-35.248;149.138;2022-09-19T05:34:51;1.08;;;0.30;;
41532;SDS011;27262;-35.248;149.138;2022-09-19T05:37:25;2.88;;;0.40;;
41532;SDS011;27262;-35.248;149.138;2022-09-19T05:39:56;1.42;;;0.30;;
41532;SDS011;27262;-35.248;149.138;2022-09-19T05:42:27;0.35;;;0.30;;
41532;SDS011;27262;-35.248;149.138;2022-09-19T05:44:57;0.60;;;0.30;;
41532;SDS011;27262;-35.248;149.138;2022-09-19T05:47:27;2.22;;;0.30;;
41532;SDS011;27262;-35.248;149.138;2022-09-19T05:49:57;2.63;;;0.22;;
41532;SDS011;27262;-35.248;149.138;2022-09-19T05:52:28;2.50;;;0.20;;
41532;SDS011;27262;-35.248;149.138;2022-09-19T05:55:16;0.65;;;0.35;;
41532;SDS011;27262;-35.248;149.138;2022-09-19T05:57:53;0.95;;;0.30;;
41532;SDS011;27262;-35.248;149.138;2022-09-19T06:00:25;1.20;;;0.30;;
41532;SDS011;27262;-35.248;149.138;2022-09-19T06:02:57;1.90;;;0.40;;
41532;SDS011;27262;-35.248;149.138;2022-09-19T06:05:36;3.60;;;0.30;;
41532;SDS011;27262;-35.248;149.138;2022-09-19T06:08:08;0.57;;;0.30;;
41532;SDS011;27262;-35.248;149.138;2022-09-19T06:10:40;1.00;;;0.30;;
41532;SDS011;27262;-35.248;149.138;2022-09-19T06:13:24;0.55;;;0.38;;
41532;SDS011;27262;-35.248;149.138;2022-09-19T06:16:14;0.68;;;0.20;;
41532;SDS011;27262;-35.248;149.138;2022-09-19T06:18:48;0.45;;;0.30;;
41532;SDS011;27262;-35.248;149.138;2022-09-19T06:21:19;0.82;;;0.20;;
41532;SDS011;27262;-35.248;149.138;2022-09-19T06:23:50;1.10;;;0.20;;
41532;SDS011;27262;-35.248;149.138;2022-09-19T06:26:20;0.40;;;0.20;;
41532;SDS011;27262;-35.248;149.138;2022-09-19T06:28:51;1.42;;;0.30;;
41532;SDS011;27262;-35.248;149.138;2022-09-19T06:31:22;0.28;;;0.20;;
41532;SDS011;27262;-35.248;149.138;2022-09-19T06:33:52;3.80;;;0.38;;
41532;SDS011;27262;-35.248;149.138;2022-09-19T06:36:23;0.68;;;0.22;;
41532;SDS011;27262;-35.248;149.138;2022-09-19T06:38:54;0.50;;;0.20;;
41532;SDS011;27262;-35.248;149.138;2022-09-19T06:41:24;1.35;;;0.30;;
41532;SDS011;27262;-35.248;149.138;2022-09-19T06:43:54;0.32;;;0.30;;
41532;SDS011;27262;-35.248;149.138;2022-09-19T06:46:24;3.22;;;0.40;;
41532;SDS011;27262;-35.248;149.138;2022-09-19T06:48:54;3.83;;;0.50;;
41532;SDS011;27262;-35.248;149.138;2022-09-19T06:51:25;0.73;;;0.30;;
41532;SDS011;27262;-35.248;149.138;2022-09-19T06:53:57;0.90;;;0.38;;
41532;SDS011;27262;-35.248;149.138;2022-09-19T06:56:27;2.65;;;0.45;;
41532;SDS011;27262;-35.248;149.138;2022-09-19T06:58:57;1.55;;;0.30;;
41532;SDS011;27262;-35.248;149.138;2022-09-19T07:01:28;1.10;;;0.38;;
41532;SDS011;27262;-35.248;149.138;2022-09-19T07:03:59;0.52;;;0.30;;
41532;SDS011;27262;-35.248;149.138;2022-09-19T07:06:31;0.77;;;0.28;;
41532;SDS011;27262;-35.248;149.138;2022-09-19T07:09:08;2.25;;;0.40;;
41532;SDS011;27262;-35.248;149.138;2022-09-19T07:11:38;1.10;;;0.30;;
41532;SDS011;27262;-35.248;149.138;2022-09-19T07:14:10;1.63;;;0.50;;
41532;SDS011;27262;-35.248;149.138;2022-09-19T07:16:40;0.50;;;0.30;;
41532;SDS011;27262;-35.248;149.138;2022-09-19T07:19:10;1.20;;;0.20;;
41532;SDS011;27262;-35.248;149.138;2022-09-19T07:21:41;2.97;;;0.40;;
41532;SDS011;27262;-35.248;149.138;2022-09-19T07:24:15;0.40;;;0.30;;
41532;SDS011;27262;-35.248;149.138;2022-09-19T07:26:45;1.23;;;0.30;;
41532;SDS011;27262;-35.248;149.138;2022-09-19T07:29:15;1.65;;;0.30;;
41532;SDS011;27262;-35.248;149.138;2022-09-19T07:31:46;1.45;;;0.40;;
41532;SDS011;27262;-35.248;149.138;2022-09-19T07:34:16;2.30;;;0.40;;
41532;SDS011;27262;-35.248;149.138;2022-09-19T07:36:46;1.70;;;0.35;;
41532;SDS011;27262;-35.248;149.138;2022-09-19T07:39:17;1.02;;;0.30;;
41532;SDS011;27262;-35.248;149.138;2022-09-19T07:41:50;1.58;;;0.35;;
41532;SDS011;27262;-35.248;149.138;2022-09-19T07:44:21;4.45;;;0.40;;
41532;SDS011;27262;-35.248;149.138;2022-09-19T07:46:51;3.88;;;0.35;;
41532;SDS011;27262;-35.248;149.138;2022-09-19T07:49:40;2.70;;;0.50;;
41532;SDS011;27262;-35.248;149.138;2022-09-19T07:52:10;1.55;;;0.32;;
41532;SDS011;27262;-35.248;149.138;2022-09-19T07:54:40;5.03;;;0.40;;
41532;SDS011;27262;-35.248;149.138;2022-09-19T07:57:10;1.00;;;0.40;;
41532;SDS011;27262;-35.248;149.138;2022-09-19T07:59:41;0.32;;;0.20;;
41532;SDS011;27262;-35.248;149.138;2022-09-19T08:02:13;2.20;;;0.40;;
41532;SDS011;27262;-35.248;149.138;2022-09-19T08:04:43;2.35;;;0.50;;
41532;SDS011;27262;-35.248;149.138;2022-09-19T08:07:14;1.38;;;0.40;;
41532;SDS011;27262;-35.248;149.138;2022-09-19T08:09:44;2.25;;;0.40;;
41532;SDS011;27262;-35.248;149.138;2022-09-19T08:12:15;1.52;;;0.50;;
41532;SDS011;27262;-35.248;149.138;2022-09-19T08:14:45;2.08;;;0.30;;
41532;SDS011;27262;-35.248;149.138;2022-09-19T08:17:15;1.73;;;0.40;;
41532;SDS011;27262;-35.248;149.138;2022-09-19T08:19:46;2.72;;;0.30;;
41532;SDS011;27262;-35.248;149.138;2022-09-19T08:22:16;4.38;;;0.30;;
41532;SDS011;27262;-35.248;149.138;2022-09-19T08:24:46;0.90;;;0.50;;
41532;SDS011;27262;-35.248;149.138;2022-09-19T08:27:16;2.90;;;0.35;;
41532;SDS011;27262;-35.248;149.138;2022-09-19T08:29:46;1.23;;;0.43;;
41532;SDS011;27262;-35.248;149.138;2022-09-19T08:32:17;2.55;;;0.50;;
41532;SDS011;27262;-35.248;149.138;2022-09-19T08:34:48;0.77;;;0.30;;
41532;SDS011;27262;-35.248;149.138;2022-09-19T08:37:18;1.02;;;0.30;;
41532;SDS011;27262;-35.248;149.138;2022-09-19T08:39:48;1.48;;;0.47;;
41532;SDS011;27262;-35.248;149.138;2022-09-19T08:42:42;1.05;;;0.30;;
41532;SDS011;27262;-35.248;149.138;2022-09-19T08:48:21;1.02;;;0.50;;
41532;SDS011;27262;-35.248;149.138;2022-09-19T08:51:04;1.92;;;0.50;;
41532;SDS011;27262;-35.248;149.138;2022-09-19T08:53:41;1.58;;;0.45;;
41532;SDS011;27262;-35.248;149.138;2022-09-19T08:56:15;2.40;;;0.43;;
41532;SDS011;27262;-35.248;149.138;2022-09-19T08:58:49;2.17;;;0.38;;
41532;SDS011;27262;-35.248;149.138;2022-09-19T09:01:28;1.10;;;0.30;;
41532;SDS011;27262;-35.248;149.138;2022-09-19T09:06:48;1.95;;;0.47;;
41532;SDS011;27262;-35.248;149.138;2022-09-19T09:09:44;2.70;;;0.40;;
41532;SDS011;27262;-35.248;149.138;2022-09-19T09:15:13;0.70;;;0.30;;
41532;SDS011;27262;-35.248;149.138;2022-09-19T09:23:50;1.10;;;0.55;;
41532;SDS011;27262;-35.248;149.138;2022-09-19T09:26:52;1.40;;;0.50;;
41532;SDS011;27262;-35.248;149.138;2022-09-19T09:32:03;0.65;;;0.30;;
41532;SDS011;27262;-35.248;149.138;2022-09-19T09:37:35;0.88;;;0.43;;
41532;SDS011;27262;-35.248;149.138;2022-09-19T09:40:24;1.83;;;0.57;;
41532;SDS011;27262;-35.248;149.138;2022-09-19T09:43:21;0.90;;;0.30;;
41532;SDS011;27262;-35.248;149.138;2022-09-19T09:45:55;1.02;;;0.50;;
41532;SDS011;27262;-35.248;149.138;2022-09-19T09:48:37;1.38;;;0.45;;
41532;SDS011;27262;-35.248;149.138;2022-09-19T09:59:54;2.58;;;0.47;;
41532;SDS011;27262;-35.248;149.138;2022-09-19T10:03:19;0.82;;;0.30;;
41532;SDS011;27262;-35.248;149.138;2022-09-19T10:06:14;0.65;;;0.30;;
41532;SDS011;27262;-35.248;149.138;2022-09-19T10:09:13;0.77;;;0.40;;
41532;SDS011;27262;-35.248;149.138;2022-09-19T10:14:43;1.05;;;0.40;;
41532;SDS011;27262;-35.248;149.138;2022-09-19T10:17:15;0.80;;;0.30;;
41532;SDS011;27262;-35.248;149.138;2022-09-19T10:19:49;0.60;;;0.40;;
41532;SDS011;27262;-35.248;149.138;2022-09-19T10:22:26;1.05;;;0.50;;
41532;SDS011;27262;-35.248;149.138;2022-09-19T10:24:57;0.90;;;0.30;;
41532;SDS011;27262;-35.248;149.138;2022-09-19T10:27:38;2.15;;;0.38;;
41532;SDS011;27262;-35.248;149.138;2022-09-19T10:30:14;2.13;;;0.60;;
41532;SDS011;27262;-35.248;149.138;2022-09-19T10:32:47;1.20;;;0.28;;
41532;SDS011;27262;-35.248;149.138;2022-09-19T10:37:59;0.43;;;0.32;;
41532;SDS011;27262;-35.248;149.138;2022-09-19T10:40:55;1.50;;;0.50;;
41532;SDS011;27262;-35.248;149.138;2022-09-19T10:46:41;0.80;;;0.40;;
41532;SDS011;27262;-35.248;149.138;2022-09-19T10:49:16;0.63;;;0.40;;
41532;SDS011;27262;-35.248;149.138;2022-09-19T10:51:55;0.50;;;0.35;;
41532;SDS011;27262;-35.248;149.138;2022-09-19T10:57:26;0.68;;;0.30;;
41532;SDS011;27262;-35.248;149.138;2022-09-19T10:59:56;2.15;;;0.45;;
41532;SDS011;27262;-35.248;149.138;2022-09-19T11:02:31;0.60;;;0.40;;
41532;SDS011;27262;-35.248;149.138;2022-09-19T11:05:03;0.90;;;0.50;;
41532;SDS011;27262;-35.248;149.138;2022-09-19T11:07:49;1.35;;;0.55;;
41532;SDS011;27262;-35.248;149.138;2022-09-19T11:10:33;0.70;;;0.50;;
41532;SDS011;27262;-35.248;149.138;2022-09-19T11:13:16;2.08;;;0.70;;
41532;SDS011;27262;-35.248;149.138;2022-09-19T11:15:56;0.73;;;0.40;;
41532;SDS011;27262;-35.248;149.138;2022-09-19T11:21:36;1.52;;;0.22;;
41532;SDS011;27262;-35.248;149.138;2022-09-19T11:24:43;1.17;;;0.40;;
41532;SDS011;27262;-35.248;149.138;2022-09-19T11:30:19;1.00;;;0.57;;
41532;SDS011;27262;-35.248;149.138;2022-09-19T11:42:20;0.65;;;0.40;;
41532;SDS011;27262;-35.248;149.138;2022-09-19T11:45:20;1.10;;;0.55;;
41532;SDS011;27262;-35.248;149.138;2022-09-19T12:10:42;3.08;;;0.80;;
41532;SDS011;27262;-35.248;149.138;2022-09-19T12:14:07;3.08;;;0.90;;
41532;SDS011;27262;-35.248;149.138;2022-09-19T12:19:21;5.55;;;1.10;;
41532;SDS011;27262;-35.248;149.138;2022-09-19T12:21:58;8.13;;;1.40;;
41532;SDS011;27262;-35.248;149.138;2022-09-19T12:24:36;10.65;;;1.70;;
41532;SDS011;27262;-35.248;149.138;2022-09-19T12:30:18;7.38;;;1.95;;
41532;SDS011;27262;-35.248;149.138;2022-09-19T12:35:56;8.55;;;1.70;;
41532;SDS011;27262;-35.248;149.138;2022-09-19T12:38:48;9.30;;;1.75;;
41532;SDS011;27262;-35.248;149.138;2022-09-19T12:47:12;6.95;;;1.60;;
41532;SDS011;27262;-35.248;149.138;2022-09-19T12:50:14;7.00;;;1.70;;
41532;SDS011;27262;-35.248;149.138;2022-09-19T12:52:56;4.38;;;1.33;;
41532;SDS011;27262;-35.248;149.138;2022-09-19T12:58:35;8.77;;;1.60;;
41532;SDS011;27262;-35.248;149.138;2022-09-19T13:03:52;4.40;;;1.13;;
41532;SDS011;27262;-35.248;149.138;2022-09-19T13:06:55;9.20;;;1.92;;
41532;SDS011;27262;-35.248;149.138;2022-09-19T13:09:35;5.20;;;1.35;;
41532;SDS011;27262;-35.248;149.138;2022-09-19T13:15:20;3.95;;;1.17;;
41532;SDS011;27262;-35.248;149.138;2022-09-19T13:18:19;7.38;;;1.60;;
41532;SDS011;27262;-35.248;149.138;2022-09-19T13:21:18;6.57;;;2.05;;
41532;SDS011;27262;-35.248;149.138;2022-09-19T13:24:12;6.47;;;1.73;;
41532;SDS011;27262;-35.248;149.138;2022-09-19T13:26:46;9.60;;;1.65;;
41532;SDS011;27262;-35.248;149.138;2022-09-19T13:31:59;6.97;;;1.65;;
41532;SDS011;27262;-35.248;149.138;2022-09-19T13:51:01;6.45;;;1.23;;
41532;SDS011;27262;-35.248;149.138;2022-09-19T13:53:40;6.43;;;1.55;;
41532;SDS011;27262;-35.248;149.138;2022-09-19T13:59:09;5.72;;;1.55;;
41532;SDS011;27262;-35.248;149.138;2022-09-19T14:01:53;3.42;;;1.02;;
41532;SDS011;27262;-35.248;149.138;2022-09-19T14:04:36;6.38;;;1.50;;
41532;SDS011;27262;-35.248;149.138;2022-09-19T14:10:26;5.90;;;1.55;;
41532;SDS011;27262;-35.248;149.138;2022-09-19T14:13:49;4.50;;;1.50;;
41532;SDS011;27262;-35.248;149.138;2022-09-19T14:18:48;4.53;;;1.10;;
41532;SDS011;27262;-35.248;149.138;2022-09-19T14:24:49;3.05;;;1.10;;
41532;SDS011;27262;-35.248;149.138;2022-09-19T14:30:04;2.85;;;1.00;;
41532;SDS011;27262;-35.248;149.138;2022-09-19T14:35:44;4.10;;;1.00;;
41532;SDS011;27262;-35.248;149.138;2022-09-19T14:41:48;3.17;;;0.90;;
41532;SDS011;27262;-35.248;149.138;2022-09-19T14:44:44;2.78;;;0.90;;
41532;SDS011;27262;-35.248;149.138;2022-09-19T14:47:48;2.35;;;0.93;;
41532;SDS011;27262;-35.248;149.138;2022-09-19T14:50:48;5.30;;;1.25;;
41532;SDS011;27262;-35.248;149.138;2022-09-19T14:53:27;4.45;;;1.25;;
41532;SDS011;27262;-35.248;149.138;2022-09-19T14:56:02;3.25;;;0.98;;
41532;SDS011;27262;-35.248;149.138;2022-09-19T14:58:50;2.53;;;1.00;;
41532;SDS011;27262;-35.248;149.138;2022-09-19T15:01:25;4.72;;;1.20;;
41532;SDS011;27262;-35.248;149.138;2022-09-19T15:04:16;2.53;;;1.05;;
41532;SDS011;27262;-35.248;149.138;2022-09-19T15:06:53;1.33;;;0.80;;
41532;SDS011;27262;-35.248;149.138;2022-09-19T15:09:33;2.40;;;1.00;;
41532;SDS011;27262;-35.248;149.138;2022-09-19T15:14:46;4.15;;;1.13;;
41532;SDS011;27262;-35.248;149.138;2022-09-19T15:17:29;2.25;;;0.82;;
41532;SDS011;27262;-35.248;149.138;2022-09-19T15:22:44;2.03;;;0.90;;
41532;SDS011;27262;-35.248;149.138;2022-09-19T15:25:27;1.50;;;0.88;;
41532;SDS011;27262;-35.248;149.138;2022-09-19T15:28:22;4.50;;;1.10;;
41532;SDS011;27262;-35.248;149.138;2022-09-19T15:30:56;0.88;;;0.80;;
41532;SDS011;27262;-35.248;149.138;2022-09-19T15:33:29;2.10;;;1.00;;
41532;SDS011;27262;-35.248;149.138;2022-09-19T15:36:00;2.53;;;0.90;;
41532;SDS011;27262;-35.248;149.138;2022-09-19T15:38:33;1.33;;;0.63;;
41532;SDS011;27262;-35.248;149.138;2022-09-19T15:41:04;3.97;;;1.13;;
41532;SDS011;27262;-35.248;149.138;2022-09-19T15:43:49;2.25;;;0.95;;
41532;SDS011;27262;-35.248;149.138;2022-09-19T15:46:42;2.35;;;0.75;;
41532;SDS011;27262;-35.248;149.138;2022-09-19T15:55:18;1.30;;;0.75;;
41532;SDS011;27262;-35.248;149.138;2022-09-19T15:58:02;2.97;;;1.00;;
41532;SDS011;27262;-35.248;149.138;2022-09-19T16:00:33;1.90;;;0.77;;
41532;SDS011;27262;-35.248;149.138;2022-09-19T16:03:15;2.53;;;0.73;;
41532;SDS011;27262;-35.248;149.138;2022-09-19T16:05:48;2.30;;;1.05;;
41532;SDS011;27262;-35.248;149.138;2022-09-19T16:08:54;1.98;;;1.00;;
41532;SDS011;27262;-35.248;149.138;2022-09-19T16:11:33;1.85;;;0.90;;
41532;SDS011;27262;-35.248;149.138;2022-09-19T16:14:06;1.80;;;1.10;;
41532;SDS011;27262;-35.248;149.138;2022-09-19T16:16:45;1.60;;;0.93;;
41532;SDS011;27262;-35.248;149.138;2022-09-19T16:22:01;2.45;;;0.82;;
41532;SDS011;27262;-35.248;149.138;2022-09-19T16:24:35;1.60;;;0.93;;
41532;SDS011;27262;-35.248;149.138;2022-09-19T16:27:28;2.47;;;1.00;;
41532;SDS011;27262;-35.248;149.138;2022-09-19T16:30:03;1.48;;;1.10;;
41532;SDS011;27262;-35.248;149.138;2022-09-19T16:32:40;2.05;;;1.08;;
41532;SDS011;27262;-35.248;149.138;2022-09-19T16:35:16;2.15;;;0.90;;
41532;SDS011;27262;-35.248;149.138;2022-09-19T16:37:48;1.17;;;0.85;;
41532;SDS011;27262;-35.248;149.138;2022-09-19T16:40:22;2.60;;;0.98;;
41532;SDS011;27262;-35.248;149.138;2022-09-19T16:42:58;1.63;;;1.00;;
41532;SDS011;27262;-35.248;149.138;2022-09-19T16:45:36;1.48;;;0.90;;
41532;SDS011;27262;-35.248;149.138;2022-09-19T16:48:08;1.33;;;0.90;;
41532;SDS011;27262;-35.248;149.138;2022-09-19T16:50:40;2.13;;;1.13;;
41532;SDS011;27262;-35.248;149.138;2022-09-19T16:53:13;2.78;;;1.10;;
41532;SDS011;27262;-35.248;149.138;2022-09-19T16:55:44;1.40;;;0.75;;
41532;SDS011;27262;-35.248;149.138;2022-09-19T16:58:18;2.88;;;1.30;;
41532;SDS011;27262;-35.248;149.138;2022-09-19T17:00:50;3.33;;;1.00;;
41532;SDS011;27262;-35.248;149.138;2022-09-19T17:03:21;2.28;;;1.00;;
41532;SDS011;27262;-35.248;149.138;2022-09-19T17:05:52;1.50;;;1.15;;
41532;SDS011;27262;-35.248;149.138;2022-09-19T17:08:25;3.70;;;1.10;;
41532;SDS011;27262;-35.248;149.138;2022-09-19T17:10:58;2.45;;;1.10;;
41532;SDS011;27262;-35.248;149.138;2022-09-19T17:13:29;1.55;;;0.95;;
41532;SDS011;27262;-35.248;149.138;2022-09-19T17:15:59;2.42;;;1.00;;
41532;SDS011;27262;-35.248;149.138;2022-09-19T17:18:34;0.93;;;0.80;;
41532;SDS011;27262;-35.248;149.138;2022-09-19T17:21:04;1.40;;;0.98;;
41532;SDS011;27262;-35.248;149.138;2022-09-19T17:23:37;0.90;;;0.70;;
41532;SDS011;27262;-35.248;149.138;2022-09-19T17:26:08;2.08;;;0.90;;
41532;SDS011;27262;-35.248;149.138;2022-09-19T17:28:38;1.25;;;0.82;;
41532;SDS011;27262;-35.248;149.138;2022-09-19T17:31:10;1.50;;;1.10;;
41532;SDS011;27262;-35.248;149.138;2022-09-19T17:33:42;2.05;;;1.13;;
41532;SDS011;27262;-35.248;149.138;2022-09-19T17:36:12;1.58;;;1.10;;
41532;SDS011;27262;-35.248;149.138;2022-09-19T17:38:44;1.67;;;1.17;;
41532;SDS011;27262;-35.248;149.138;2022-09-19T17:41:14;2.17;;;1.20;;
41532;SDS011;27262;-35.248;149.138;2022-09-19T17:43:45;2.75;;;0.90;;
41532;SDS011;27262;-35.248;149.138;2022-09-19T17:46:15;1.20;;;0.90;;
41532;SDS011;27262;-35.248;149.138;2022-09-19T17:48:50;1.93;;;0.80;;
41532;SDS011;27262;-35.248;149.138;2022-09-19T17:51:20;2.80;;;0.80;;
41532;SDS011;27262;-35.248;149.138;2022-09-19T17:53:52;1.00;;;0.80;;
41532;SDS011;27262;-35.248;149.138;2022-09-19T17:56:23;1.15;;;0.75;;
41532;SDS011;27262;-35.248;149.138;2022-09-19T17:58:55;1.33;;;0.77;;
41532;SDS011;27262;-35.248;149.138;2022-09-19T18:01:28;2.83;;;1.23;;
41532;SDS011;27262;-35.248;149.138;2022-09-19T18:04:17;2.17;;;0.80;;
41532;SDS011;27262;-35.248;149.138;2022-09-19T18:06:47;2.45;;;1.00;;
41532;SDS011;27262;-35.248;149.138;2022-09-19T18:09:17;1.60;;;1.00;;
41532;SDS011;27262;-35.248;149.138;2022-09-19T18:11:47;2.50;;;0.70;;